• Join FlightAware (Why Join?)
  • Login
  • US Flag 
05:37PM EDT


 

Airport Tracker/Info


-or-


 

Live Flight TrackerFlight Track Log ✈ AEE378 ✈ 24-Apr-2013 ✈ LGAV / ATH - LGMK / JMK

Flight Track Log - Related Links

Times and Time Zones

All times are in EDT time to prevent confusion due to time zone crossing. See the AEE378 flight status page for this flight to view local times or setup timezone preferences in your user account.

Time Position Orientation Groundspeed Altitude Reporting Facility
EDT Latitude Longitude Course Direction KTS MPH feet Rate Location/Type
12:20PM 37.7164 24.5685 114° Southeast  Level Estimated
12:21PM 37.6609 24.7239 114° Southeast  Level Estimated
12:22PM 37.6052 24.8791 114° Southeast  Level Estimated
12:23PM 37.5493 25.0341 114° Southeast  Level Estimated
12:23PM 37.7020 24.4860 115° Southeast 350 403 11,000  Level FlightAware
12:24PM 37.4932 25.1888 115° Southeast  Level Estimated
12:24PM 37.6690 24.5390 128° Southeast 351 404 11,000  Level FlightAware
12:24PM 37.6300 24.6040 127° Southeast 351 404 11,000 -540 Level FlightAware
12:25PM 37.5830 24.6800 128° Southeast 318 366 10,200 -960 Descending FlightAware
12:26PM 37.5460 24.7400 128° Southeast 292 336 9,700 -840 Descending FlightAware
12:26PM 37.5180 24.7860 127° Southeast 292 336 9,200 -1,140 Descending FlightAware
12:27PM 37.4930 24.8260 128° Southeast 287 330 8,500 -1,440 Descending FlightAware
12:27PM 37.4740 24.8570 128° Southeast 287 330 7,900 -780 Descending FlightAware
12:28PM 37.4530 24.8910 128° Southeast 287 330 7,800 -1,140 Descending FlightAware
12:30PM 37.4418 25.1824 93° East  Level Estimated
12:30PM 37.3880 25.0770 93° East 263 303 5,100  Level FlightAware
12:30PM 37.3830 25.0990 106° East 258 297 4,800 -540 Descending FlightAware
12:31PM 37.3740 25.1400 105° East 258 297 4,700 -1,800 Descending FlightAware
12:31PM 37.3630 25.1850 107° East 259 298 3,000 -3,420 Descending FlightAware
12:34PM 37.4351 25.3481 61° Northeast  Level Estimated
12:35PM 37.4351 25.3481 130° Southeast  Level Estimated
12:36PM 37.4351 25.3481 130° Southeast  Level Estimated
12:37PM 37.4351 25.3481 130° Southeast  Level Estimated
12:38PM 37.4351 25.3481 130° Southeast  Level Estimated
12:39PM 37.4351 25.3481 130° Southeast  Level Estimated
12:40PM 37.4351 25.3481 130° Southeast  Level Estimated